sensor_id;sensor_type;location;lat;lon;timestamp;P1;durP1;ratioP1;P2;durP2;ratioP2
20283;SDS011;10301;50.832;4.080;2022-12-10T00:00:42;55.23;;;23.87;;
20283;SDS011;10301;50.832;4.080;2022-12-10T00:03:07;67.07;;;25.07;;
20283;SDS011;10301;50.832;4.080;2022-12-10T00:05:33;62.57;;;24.00;;
20283;SDS011;10301;50.832;4.080;2022-12-10T00:07:59;65.33;;;27.50;;
20283;SDS011;10301;50.832;4.080;2022-12-10T00:10:25;60.10;;;25.20;;
20283;SDS011;10301;50.832;4.080;2022-12-10T00:12:50;58.50;;;25.40;;
20283;SDS011;10301;50.832;4.080;2022-12-10T00:15:16;62.60;;;25.77;;
20283;SDS011;10301;50.832;4.080;2022-12-10T00:17:42;70.70;;;26.00;;
20283;SDS011;10301;50.832;4.080;2022-12-10T00:20:08;74.83;;;28.87;;
20283;SDS011;10301;50.832;4.080;2022-12-10T00:22:34;66.33;;;25.40;;
20283;SDS011;10301;50.832;4.080;2022-12-10T00:25:00;63.20;;;25.10;;
20283;SDS011;10301;50.832;4.080;2022-12-10T00:27:26;59.63;;;25.70;;
20283;SDS011;10301;50.832;4.080;2022-12-10T00:29:51;65.83;;;26.17;;
20283;SDS011;10301;50.832;4.080;2022-12-10T00:32:17;72.17;;;26.17;;
20283;SDS011;10301;50.832;4.080;2022-12-10T00:34:43;63.67;;;25.73;;
20283;SDS011;10301;50.832;4.080;2022-12-10T00:37:09;66.97;;;27.33;;
20283;SDS011;10301;50.832;4.080;2022-12-10T00:39:35;77.47;;;27.83;;
20283;SDS011;10301;50.832;4.080;2022-12-10T00:42:01;78.93;;;30.10;;
20283;SDS011;10301;50.832;4.080;2022-12-10T00:44:27;70.13;;;27.40;;
20283;SDS011;10301;50.832;4.080;2022-12-10T00:46:53;69.33;;;26.97;;
20283;SDS011;10301;50.832;4.080;2022-12-10T00:49:18;70.87;;;26.33;;
20283;SDS011;10301;50.832;4.080;2022-12-10T00:51:48;61.77;;;26.30;;
20283;SDS011;10301;50.832;4.080;2022-12-10T00:54:14;67.73;;;27.77;;
20283;SDS011;10301;50.832;4.080;2022-12-10T00:56:39;62.60;;;26.60;;
20283;SDS011;10301;50.832;4.080;2022-12-10T00:59:05;66.03;;;25.97;;
20283;SDS011;10301;50.832;4.080;2022-12-10T01:01:32;72.10;;;28.03;;
20283;SDS011;10301;50.832;4.080;2022-12-10T01:04:07;69.40;;;26.53;;
20283;SDS011;10301;50.832;4.080;2022-12-10T01:06:43;73.93;;;28.97;;
20283;SDS011;10301;50.832;4.080;2022-12-10T01:09:11;69.47;;;27.47;;
20283;SDS011;10301;50.832;4.080;2022-12-10T01:11:39;75.77;;;29.43;;
20283;SDS011;10301;50.832;4.080;2022-12-10T01:14:07;64.77;;;25.77;;
20283;SDS011;10301;50.832;4.080;2022-12-10T01:16:33;65.17;;;25.10;;
20283;SDS011;10301;50.832;4.080;2022-12-10T01:19:00;63.13;;;24.77;;
20283;SDS011;10301;50.832;4.080;2022-12-10T01:21:27;65.90;;;26.10;;
20283;SDS011;10301;50.832;4.080;2022-12-10T01:23:53;63.00;;;25.27;;
20283;SDS011;10301;50.832;4.080;2022-12-10T01:26:21;58.73;;;25.37;;
20283;SDS011;10301;50.832;4.080;2022-12-10T01:28:51;64.93;;;24.63;;
20283;SDS011;10301;50.832;4.080;2022-12-10T01:31:18;69.70;;;26.27;;
20283;SDS011;10301;50.832;4.080;2022-12-10T01:33:46;74.20;;;26.20;;
20283;SDS011;10301;50.832;4.080;2022-12-10T01:36:21;77.67;;;27.07;;
20283;SDS011;10301;50.832;4.080;2022-12-10T01:38:49;76.37;;;27.87;;
20283;SDS011;10301;50.832;4.080;2022-12-10T01:41:17;74.70;;;26.97;;
20283;SDS011;10301;50.832;4.080;2022-12-10T01:46:34;75.63;;;28.57;;
20283;SDS011;10301;50.832;4.080;2022-12-10T01:49:02;75.90;;;27.80;;
20283;SDS011;10301;50.832;4.080;2022-12-10T01:51:30;76.27;;;28.13;;
20283;SDS011;10301;50.832;4.080;2022-12-10T01:53:58;77.90;;;28.73;;
20283;SDS011;10301;50.832;4.080;2022-12-10T01:56:25;75.83;;;27.33;;
20283;SDS011;10301;50.832;4.080;2022-12-10T01:58:52;77.50;;;28.17;;
20283;SDS011;10301;50.832;4.080;2022-12-10T02:01:35;74.57;;;29.20;;
20283;SDS011;10301;50.832;4.080;2022-12-10T02:07:01;79.87;;;28.33;;
20283;SDS011;10301;50.832;4.080;2022-12-10T02:09:45;71.63;;;27.30;;
20283;SDS011;10301;50.832;4.080;2022-12-10T02:15:02;75.60;;;29.03;;
20283;SDS011;10301;50.832;4.080;2022-12-10T02:17:38;81.20;;;29.20;;
20283;SDS011;10301;50.832;4.080;2022-12-10T02:22:37;75.83;;;26.93;;
20283;SDS011;10301;50.832;4.080;2022-12-10T02:25:08;71.27;;;26.10;;
20283;SDS011;10301;50.832;4.080;2022-12-10T02:30:21;79.47;;;29.30;;
20283;SDS011;10301;50.832;4.080;2022-12-10T02:32:48;76.70;;;26.93;;
20283;SDS011;10301;50.832;4.080;2022-12-10T02:35:33;71.17;;;26.83;;
20283;SDS011;10301;50.832;4.080;2022-12-10T02:38:09;79.43;;;28.83;;
20283;SDS011;10301;50.832;4.080;2022-12-10T02:40:45;77.17;;;28.30;;
20283;SDS011;10301;50.832;4.080;2022-12-10T02:43:14;82.60;;;29.73;;
20283;SDS011;10301;50.832;4.080;2022-12-10T02:45:41;82.33;;;29.13;;
20283;SDS011;10301;50.832;4.080;2022-12-10T02:48:08;81.47;;;27.67;;
20283;SDS011;10301;50.832;4.080;2022-12-10T02:50:35;80.80;;;29.03;;
20283;SDS011;10301;50.832;4.080;2022-12-10T02:53:01;81.60;;;29.20;;
20283;SDS011;10301;50.832;4.080;2022-12-10T02:55:28;84.27;;;29.13;;
20283;SDS011;10301;50.832;4.080;2022-12-10T02:58:21;85.70;;;29.53;;
20283;SDS011;10301;50.832;4.080;2022-12-10T03:01:15;78.33;;;28.87;;
20283;SDS011;10301;50.832;4.080;2022-12-10T03:03:48;88.40;;;28.73;;
20283;SDS011;10301;50.832;4.080;2022-12-10T03:06:27;79.43;;;28.70;;
20283;SDS011;10301;50.832;4.080;2022-12-10T03:09:11;80.87;;;27.97;;
20283;SDS011;10301;50.832;4.080;2022-12-10T03:11:43;82.80;;;28.67;;
20283;SDS011;10301;50.832;4.080;2022-12-10T03:14:16;88.33;;;27.53;;
20283;SDS011;10301;50.832;4.080;2022-12-10T03:16:56;81.60;;;28.03;;
20283;SDS011;10301;50.832;4.080;2022-12-10T03:19:31;84.57;;;25.70;;
20283;SDS011;10301;50.832;4.080;2022-12-10T03:22:05;71.83;;;24.63;;
20283;SDS011;10301;50.832;4.080;2022-12-10T03:24:33;77.90;;;25.63;;
20283;SDS011;10301;50.832;4.080;2022-12-10T03:27:00;77.20;;;25.23;;
20283;SDS011;10301;50.832;4.080;2022-12-10T03:29:32;83.70;;;26.03;;
20283;SDS011;10301;50.832;4.080;2022-12-10T03:32:02;73.37;;;25.03;;
20283;SDS011;10301;50.832;4.080;2022-12-10T03:34:29;95.33;;;26.83;;
20283;SDS011;10301;50.832;4.080;2022-12-10T03:36:54;79.73;;;26.60;;
20283;SDS011;10301;50.832;4.080;2022-12-10T03:39:20;95.00;;;27.13;;
20283;SDS011;10301;50.832;4.080;2022-12-10T03:41:47;83.77;;;27.97;;
20283;SDS011;10301;50.832;4.080;2022-12-10T03:44:12;83.90;;;26.97;;
20283;SDS011;10301;50.832;4.080;2022-12-10T03:46:38;86.77;;;27.67;;
20283;SDS011;10301;50.832;4.080;2022-12-10T03:49:04;87.23;;;28.30;;
20283;SDS011;10301;50.832;4.080;2022-12-10T03:51:30;82.10;;;26.40;;
20283;SDS011;10301;50.832;4.080;2022-12-10T03:53:55;82.77;;;26.13;;
20283;SDS011;10301;50.832;4.080;2022-12-10T03:56:21;76.57;;;28.07;;
20283;SDS011;10301;50.832;4.080;2022-12-10T03:58:47;83.80;;;27.70;;
20283;SDS011;10301;50.832;4.080;2022-12-10T04:01:13;85.73;;;28.43;;
20283;SDS011;10301;50.832;4.080;2022-12-10T04:03:40;91.73;;;28.40;;
20283;SDS011;10301;50.832;4.080;2022-12-10T04:06:08;107.37;;;30.70;;
20283;SDS011;10301;50.832;4.080;2022-12-10T04:08:36;100.10;;;28.83;;
20283;SDS011;10301;50.832;4.080;2022-12-10T04:11:03;101.00;;;32.97;;
20283;SDS011;10301;50.832;4.080;2022-12-10T04:13:31;98.97;;;31.10;;
20283;SDS011;10301;50.832;4.080;2022-12-10T04:16:18;106.53;;;29.80;;
20283;SDS011;10301;50.832;4.080;2022-12-10T04:18:54;99.10;;;30.27;;
20283;SDS011;10301;50.832;4.080;2022-12-10T04:21:25;121.33;;;30.87;;
20283;SDS011;10301;50.832;4.080;2022-12-10T04:24:11;95.60;;;29.60;;
20283;SDS011;10301;50.832;4.080;2022-12-10T04:26:57;108.53;;;29.77;;
20283;SDS011;10301;50.832;4.080;2022-12-10T04:29:26;121.80;;;31.93;;
20283;SDS011;10301;50.832;4.080;2022-12-10T04:31:53;103.67;;;30.53;;
20283;SDS011;10301;50.832;4.080;2022-12-10T04:34:20;96.23;;;32.67;;
20283;SDS011;10301;50.832;4.080;2022-12-10T04:36:45;107.50;;;31.40;;
20283;SDS011;10301;50.832;4.080;2022-12-10T04:39:11;128.10;;;33.50;;
20283;SDS011;10301;50.832;4.080;2022-12-10T04:41:39;120.10;;;32.83;;
20283;SDS011;10301;50.832;4.080;2022-12-10T04:44:06;103.30;;;31.13;;
20283;SDS011;10301;50.832;4.080;2022-12-10T04:46:32;109.80;;;32.43;;
20283;SDS011;10301;50.832;4.080;2022-12-10T04:48:57;105.20;;;32.63;;
20283;SDS011;10301;50.832;4.080;2022-12-10T04:51:23;106.50;;;31.40;;
20283;SDS011;10301;50.832;4.080;2022-12-10T04:53:49;107.17;;;31.33;;
20283;SDS011;10301;50.832;4.080;2022-12-10T04:56:14;116.97;;;32.57;;
20283;SDS011;10301;50.832;4.080;2022-12-10T04:58:40;134.63;;;35.30;;
20283;SDS011;10301;50.832;4.080;2022-12-10T05:01:07;101.57;;;33.70;;
20283;SDS011;10301;50.832;4.080;2022-12-10T05:03:34;112.33;;;33.23;;
20283;SDS011;10301;50.832;4.080;2022-12-10T05:06:01;100.10;;;31.70;;
20283;SDS011;10301;50.832;4.080;2022-12-10T05:08:28;105.00;;;34.03;;
20283;SDS011;10301;50.832;4.080;2022-12-10T05:10:54;107.20;;;34.80;;
20283;SDS011;10301;50.832;4.080;2022-12-10T05:13:20;107.37;;;32.90;;
20283;SDS011;10301;50.832;4.080;2022-12-10T05:15:45;105.77;;;31.57;;
20283;SDS011;10301;50.832;4.080;2022-12-10T05:18:11;98.23;;;31.70;;
20283;SDS011;10301;50.832;4.080;2022-12-10T05:20:37;114.97;;;34.23;;
20283;SDS011;10301;50.832;4.080;2022-12-10T05:23:02;94.83;;;30.93;;
20283;SDS011;10301;50.832;4.080;2022-12-10T05:25:46;129.33;;;34.97;;
20283;SDS011;10301;50.832;4.080;2022-12-10T05:28:21;102.30;;;30.10;;
20283;SDS011;10301;50.832;4.080;2022-12-10T05:30:48;116.77;;;32.37;;
20283;SDS011;10301;50.832;4.080;2022-12-10T05:33:14;123.20;;;31.50;;
20283;SDS011;10301;50.832;4.080;2022-12-10T05:35:39;106.60;;;32.10;;
20283;SDS011;10301;50.832;4.080;2022-12-10T05:38:05;112.93;;;31.73;;
20283;SDS011;10301;50.832;4.080;2022-12-10T05:40:34;111.53;;;32.17;;
20283;SDS011;10301;50.832;4.080;2022-12-10T05:43:03;103.23;;;31.00;;
20283;SDS011;10301;50.832;4.080;2022-12-10T05:45:31;112.03;;;30.40;;
20283;SDS011;10301;50.832;4.080;2022-12-10T05:47:57;106.33;;;30.90;;
20283;SDS011;10301;50.832;4.080;2022-12-10T05:50:23;109.33;;;30.47;;
20283;SDS011;10301;50.832;4.080;2022-12-10T05:52:52;125.80;;;33.07;;
20283;SDS011;10301;50.832;4.080;2022-12-10T05:55:18;107.33;;;29.70;;
20283;SDS011;10301;50.832;4.080;2022-12-10T05:57:43;128.27;;;28.60;;
20283;SDS011;10301;50.832;4.080;2022-12-10T06:00:09;164.80;;;30.37;;
20283;SDS011;10301;50.832;4.080;2022-12-10T06:02:35;113.20;;;29.80;;
20283;SDS011;10301;50.832;4.080;2022-12-10T06:05:01;115.47;;;30.17;;
20283;SDS011;10301;50.832;4.080;2022-12-10T06:07:27;104.87;;;28.60;;
20283;SDS011;10301;50.832;4.080;2022-12-10T06:09:54;107.83;;;29.60;;
20283;SDS011;10301;50.832;4.080;2022-12-10T06:12:19;115.80;;;29.13;;
20283;SDS011;10301;50.832;4.080;2022-12-10T06:14:46;143.97;;;31.33;;
20283;SDS011;10301;50.832;4.080;2022-12-10T06:17:11;142.97;;;30.63;;
20283;SDS011;10301;50.832;4.080;2022-12-10T06:19:37;86.83;;;26.87;;
20283;SDS011;10301;50.832;4.080;2022-12-10T06:22:03;128.53;;;31.57;;
20283;SDS011;10301;50.832;4.080;2022-12-10T06:24:28;99.83;;;30.57;;
20283;SDS011;10301;50.832;4.080;2022-12-10T06:26:54;109.73;;;28.03;;
20283;SDS011;10301;50.832;4.080;2022-12-10T06:29:20;125.97;;;27.23;;
20283;SDS011;10301;50.832;4.080;2022-12-10T06:31:45;87.07;;;25.57;;
20283;SDS011;10301;50.832;4.080;2022-12-10T06:34:11;116.10;;;28.47;;
20283;SDS011;10301;50.832;4.080;2022-12-10T06:36:37;109.77;;;27.80;;
20283;SDS011;10301;50.832;4.080;2022-12-10T06:39:03;95.90;;;23.17;;
20283;SDS011;10301;50.832;4.080;2022-12-10T06:41:28;85.60;;;24.43;;
20283;SDS011;10301;50.832;4.080;2022-12-10T06:43:54;101.67;;;26.17;;
20283;SDS011;10301;50.832;4.080;2022-12-10T06:46:23;101.00;;;24.33;;
20283;SDS011;10301;50.832;4.080;2022-12-10T06:48:51;104.73;;;25.80;;
20283;SDS011;10301;50.832;4.080;2022-12-10T06:51:17;106.63;;;26.00;;
20283;SDS011;10301;50.832;4.080;2022-12-10T06:53:43;83.60;;;23.13;;
20283;SDS011;10301;50.832;4.080;2022-12-10T06:56:14;90.73;;;26.07;;
20283;SDS011;10301;50.832;4.080;2022-12-10T06:58:41;80.80;;;23.33;;
20283;SDS011;10301;50.832;4.080;2022-12-10T07:01:18;92.93;;;24.43;;
20283;SDS011;10301;50.832;4.080;2022-12-10T07:03:49;98.83;;;24.80;;
20283;SDS011;10301;50.832;4.080;2022-12-10T07:06:17;114.77;;;24.33;;
20283;SDS011;10301;50.832;4.080;2022-12-10T07:08:43;80.67;;;25.63;;
20283;SDS011;10301;50.832;4.080;2022-12-10T07:11:10;105.23;;;26.20;;
20283;SDS011;10301;50.832;4.080;2022-12-10T07:13:37;87.67;;;22.40;;
20283;SDS011;10301;50.832;4.080;2022-12-10T07:16:10;84.33;;;19.20;;
20283;SDS011;10301;50.832;4.080;2022-12-10T07:18:57;95.90;;;21.13;;
20283;SDS011;10301;50.832;4.080;2022-12-10T07:21:29;100.57;;;23.23;;
20283;SDS011;10301;50.832;4.080;2022-12-10T07:23:57;77.87;;;22.40;;
20283;SDS011;10301;50.832;4.080;2022-12-10T07:26:25;88.77;;;22.67;;
20283;SDS011;10301;50.832;4.080;2022-12-10T07:28:54;90.20;;;22.73;;
20283;SDS011;10301;50.832;4.080;2022-12-10T07:31:20;91.07;;;23.47;;
20283;SDS011;10301;50.832;4.080;2022-12-10T07:33:46;95.60;;;24.57;;
20283;SDS011;10301;50.832;4.080;2022-12-10T07:36:13;84.43;;;25.30;;
20283;SDS011;10301;50.832;4.080;2022-12-10T07:38:39;89.13;;;25.40;;
20283;SDS011;10301;50.832;4.080;2022-12-10T07:41:06;82.93;;;24.87;;
20283;SDS011;10301;50.832;4.080;2022-12-10T07:43:37;90.73;;;24.13;;
20283;SDS011;10301;50.832;4.080;2022-12-10T07:46:08;84.87;;;21.20;;
20283;SDS011;10301;50.832;4.080;2022-12-10T07:48:37;74.37;;;21.73;;
20283;SDS011;10301;50.832;4.080;2022-12-10T07:51:04;89.07;;;22.53;;
20283;SDS011;10301;50.832;4.080;2022-12-10T07:53:30;92.37;;;22.23;;
20283;SDS011;10301;50.832;4.080;2022-12-10T07:55:56;79.93;;;21.87;;
20283;SDS011;10301;50.832;4.080;2022-12-10T07:58:21;84.30;;;23.90;;
20283;SDS011;10301;50.832;4.080;2022-12-10T08:00:47;88.10;;;23.67;;
20283;SDS011;10301;50.832;4.080;2022-12-10T08:03:13;84.53;;;26.77;;
20283;SDS011;10301;50.832;4.080;2022-12-10T08:05:38;73.67;;;23.07;;
20283;SDS011;10301;50.832;4.080;2022-12-10T08:08:04;73.43;;;21.53;;
20283;SDS011;10301;50.832;4.080;2022-12-10T08:10:32;71.70;;;20.50;;
20283;SDS011;10301;50.832;4.080;2022-12-10T08:12:59;71.40;;;20.13;;
20283;SDS011;10301;50.832;4.080;2022-12-10T08:15:24;69.83;;;22.80;;
20283;SDS011;10301;50.832;4.080;2022-12-10T08:17:50;62.03;;;20.27;;
20283;SDS011;10301;50.832;4.080;2022-12-10T08:20:16;90.70;;;23.77;;
20283;SDS011;10301;50.832;4.080;2022-12-10T08:22:43;79.87;;;21.60;;
20283;SDS011;10301;50.832;4.080;2022-12-10T08:25:08;80.23;;;21.30;;
20283;SDS011;10301;50.832;4.080;2022-12-10T08:27:34;89.17;;;21.20;;
20283;SDS011;10301;50.832;4.080;2022-12-10T08:30:00;67.93;;;20.77;;
20283;SDS011;10301;50.832;4.080;2022-12-10T08:32:25;69.40;;;19.27;;
20283;SDS011;10301;50.832;4.080;2022-12-10T08:34:51;69.33;;;21.77;;
20283;SDS011;10301;50.832;4.080;2022-12-10T08:37:17;73.10;;;19.87;;
20283;SDS011;10301;50.832;4.080;2022-12-10T08:39:42;69.17;;;20.37;;
20283;SDS011;10301;50.832;4.080;2022-12-10T08:42:08;59.27;;;19.70;;
20283;SDS011;10301;50.832;4.080;2022-12-10T08:44:34;62.93;;;18.33;;
20283;SDS011;10301;50.832;4.080;2022-12-10T08:46:59;82.07;;;24.23;;
20283;SDS011;10301;50.832;4.080;2022-12-10T08:49:25;78.67;;;23.67;;
20283;SDS011;10301;50.832;4.080;2022-12-10T08:51:51;56.87;;;19.67;;
20283;SDS011;10301;50.832;4.080;2022-12-10T08:54:16;71.73;;;22.33;;
20283;SDS011;10301;50.832;4.080;2022-12-10T08:56:42;75.77;;;21.60;;
20283;SDS011;10301;50.832;4.080;2022-12-10T08:59:07;69.07;;;19.47;;
20283;SDS011;10301;50.832;4.080;2022-12-10T09:01:33;57.07;;;19.03;;
20283;SDS011;10301;50.832;4.080;2022-12-10T09:03:59;69.50;;;21.10;;
20283;SDS011;10301;50.832;4.080;2022-12-10T09:06:25;64.00;;;19.87;;
20283;SDS011;10301;50.832;4.080;2022-12-10T09:08:51;72.43;;;19.93;;
20283;SDS011;10301;50.832;4.080;2022-12-10T09:13:58;63.73;;;19.50;;
20283;SDS011;10301;50.832;4.080;2022-12-10T09:16:31;74.67;;;20.57;;
20283;SDS011;10301;50.832;4.080;2022-12-10T09:18:59;61.30;;;20.10;;
20283;SDS011;10301;50.832;4.080;2022-12-10T09:21:26;70.93;;;20.63;;
20283;SDS011;10301;50.832;4.080;2022-12-10T09:23:52;67.50;;;19.60;;
20283;SDS011;10301;50.832;4.080;2022-12-10T09:26:18;75.33;;;22.07;;
20283;SDS011;10301;50.832;4.080;2022-12-10T09:28:45;69.90;;;20.70;;
20283;SDS011;10301;50.832;4.080;2022-12-10T09:31:12;74.60;;;18.57;;
20283;SDS011;10301;50.832;4.080;2022-12-10T09:33:38;53.43;;;18.23;;
20283;SDS011;10301;50.832;4.080;2022-12-10T09:36:06;65.23;;;18.43;;
20283;SDS011;10301;50.832;4.080;2022-12-10T09:38:34;60.43;;;17.53;;
20283;SDS011;10301;50.832;4.080;2022-12-10T09:41:05;52.57;;;16.63;;
20283;SDS011;10301;50.832;4.080;2022-12-10T09:43:56;59.30;;;17.30;;
20283;SDS011;10301;50.832;4.080;2022-12-10T09:46:51;63.63;;;18.23;;
20283;SDS011;10301;50.832;4.080;2022-12-10T09:52:02;63.20;;;19.17;;
20283;SDS011;10301;50.832;4.080;2022-12-10T09:54:35;59.83;;;19.50;;
20283;SDS011;10301;50.832;4.080;2022-12-10T09:57:06;58.97;;;17.20;;
20283;SDS011;10301;50.832;4.080;2022-12-10T09:59:44;67.80;;;17.57;;
20283;SDS011;10301;50.832;4.080;2022-12-10T10:02:24;59.83;;;17.90;;
20283;SDS011;10301;50.832;4.080;2022-12-10T10:04:54;55.27;;;17.43;;
20283;SDS011;10301;50.832;4.080;2022-12-10T10:07:28;54.87;;;17.10;;
20283;SDS011;10301;50.832;4.080;2022-12-10T10:10:06;65.80;;;20.20;;
20283;SDS011;10301;50.832;4.080;2022-12-10T10:12:39;56.70;;;17.13;;
20283;SDS011;10301;50.832;4.080;2022-12-10T10:15:16;57.17;;;18.23;;
20283;SDS011;10301;50.832;4.080;2022-12-10T10:17:47;59.37;;;18.60;;
20283;SDS011;10301;50.832;4.080;2022-12-10T10:20:14;59.23;;;18.77;;
20283;SDS011;10301;50.832;4.080;2022-12-10T10:22:41;54.57;;;17.87;;
20283;SDS011;10301;50.832;4.080;2022-12-10T10:25:13;61.23;;;19.67;;
20283;SDS011;10301;50.832;4.080;2022-12-10T10:27:41;57.53;;;18.43;;
20283;SDS011;10301;50.832;4.080;2022-12-10T10:30:12;67.10;;;18.43;;
20283;SDS011;10301;50.832;4.080;2022-12-10T10:32:44;56.93;;;19.00;;
20283;SDS011;10301;50.832;4.080;2022-12-10T10:35:31;50.37;;;17.97;;
20283;SDS011;10301;50.832;4.080;2022-12-10T10:38:13;52.53;;;17.93;;
20283;SDS011;10301;50.832;4.080;2022-12-10T10:40:52;47.70;;;17.40;;
20283;SDS011;10301;50.832;4.080;2022-12-10T10:43:26;63.50;;;18.20;;
20283;SDS011;10301;50.832;4.080;2022-12-10T10:48:32;69.27;;;21.33;;
20283;SDS011;10301;50.832;4.080;2022-12-10T10:51:08;77.17;;;23.93;;
20283;SDS011;10301;50.832;4.080;2022-12-10T10:53:45;51.77;;;18.10;;
20283;SDS011;10301;50.832;4.080;2022-12-10T10:56:23;59.77;;;18.77;;
20283;SDS011;10301;50.832;4.080;2022-12-10T10:59:04;57.63;;;18.50;;
20283;SDS011;10301;50.832;4.080;2022-12-10T11:04:19;51.13;;;17.80;;
20283;SDS011;10301;50.832;4.080;2022-12-10T11:06:53;56.17;;;16.33;;
20283;SDS011;10301;50.832;4.080;2022-12-10T11:09:24;54.60;;;16.43;;
20283;SDS011;10301;50.832;4.080;2022-12-10T11:12:23;58.03;;;17.10;;
20283;SDS011;10301;50.832;4.080;2022-12-10T11:14:53;52.80;;;16.33;;
20283;SDS011;10301;50.832;4.080;2022-12-10T11:17:20;49.43;;;15.47;;
20283;SDS011;10301;50.832;4.080;2022-12-10T11:22:48;50.40;;;17.17;;
20283;SDS011;10301;50.832;4.080;2022-12-10T11:25:20;52.07;;;15.60;;
20283;SDS011;10301;50.832;4.080;2022-12-10T11:28:21;47.13;;;16.43;;
20283;SDS011;10301;50.832;4.080;2022-12-10T11:31:15;43.20;;;16.53;;
20283;SDS011;10301;50.832;4.080;2022-12-10T11:42:04;50.23;;;18.00;;
20283;SDS011;10301;50.832;4.080;2022-12-10T12:01:09;54.30;;;16.97;;
20283;SDS011;10301;50.832;4.080;2022-12-10T12:03:43;53.57;;;18.90;;
20283;SDS011;10301;50.832;4.080;2022-12-10T12:06:33;59.67;;;20.17;;
20283;SDS011;10301;50.832;4.080;2022-12-10T12:11:52;49.27;;;17.80;;
20283;SDS011;10301;50.832;4.080;2022-12-10T12:17:10;51.67;;;18.67;;
20283;SDS011;10301;50.832;4.080;2022-12-10T12:20:02;61.17;;;18.57;;
20283;SDS011;10301;50.832;4.080;2022-12-10T12:22:39;55.80;;;17.77;;
20283;SDS011;10301;50.832;4.080;2022-12-10T12:25:23;58.07;;;19.50;;
20283;SDS011;10301;50.832;4.080;2022-12-10T12:27:58;50.27;;;18.03;;
20283;SDS011;10301;50.832;4.080;2022-12-10T12:30:29;52.57;;;17.97;;
20283;SDS011;10301;50.832;4.080;2022-12-10T12:33:04;46.83;;;16.97;;
20283;SDS011;10301;50.832;4.080;2022-12-10T12:35:42;55.30;;;18.97;;
20283;SDS011;10301;50.832;4.080;2022-12-10T12:45:59;52.17;;;16.50;;
20283;SDS011;10301;50.832;4.080;2022-12-10T12:48:33;49.30;;;17.00;;
20283;SDS011;10301;50.832;4.080;2022-12-10T12:51:10;52.80;;;17.27;;
20283;SDS011;10301;50.832;4.080;2022-12-10T12:53:41;55.30;;;18.07;;
20283;SDS011;10301;50.832;4.080;2022-12-10T12:56:12;50.07;;;16.20;;
20283;SDS011;10301;50.832;4.080;2022-12-10T13:01:53;51.70;;;17.83;;
20283;SDS011;10301;50.832;4.080;2022-12-10T13:04:24;48.47;;;17.27;;
20283;SDS011;10301;50.832;4.080;2022-12-10T13:09:47;50.80;;;15.80;;
20283;SDS011;10301;50.832;4.080;2022-12-10T13:12:32;52.27;;;18.10;;
20283;SDS011;10301;50.832;4.080;2022-12-10T13:15:22;56.70;;;17.50;;
20283;SDS011;10301;50.832;4.080;2022-12-10T13:18:02;63.90;;;22.33;;
20283;SDS011;10301;50.832;4.080;2022-12-10T13:20:46;59.70;;;18.40;;
20283;SDS011;10301;50.832;4.080;2022-12-10T13:23:49;52.33;;;17.17;;
20283;SDS011;10301;50.832;4.080;2022-12-10T13:26:29;56.50;;;20.37;;
20283;SDS011;10301;50.832;4.080;2022-12-10T13:28:57;67.00;;;20.37;;
20283;SDS011;10301;50.832;4.080;2022-12-10T13:31:57;59.53;;;20.07;;
20283;SDS011;10301;50.832;4.080;2022-12-10T13:34:34;56.90;;;17.93;;
20283;SDS011;10301;50.832;4.080;2022-12-10T13:39:32;60.07;;;18.97;;
20283;SDS011;10301;50.832;4.080;2022-12-10T13:49:57;50.73;;;18.10;;
20283;SDS011;10301;50.832;4.080;2022-12-10T14:01:03;63.27;;;20.13;;
20283;SDS011;10301;50.832;4.080;2022-12-10T14:06:38;58.97;;;19.73;;
20283;SDS011;10301;50.832;4.080;2022-12-10T14:09:06;65.73;;;19.93;;
20283;SDS011;10301;50.832;4.080;2022-12-10T14:14:36;65.13;;;20.27;;
20283;SDS011;10301;50.832;4.080;2022-12-10T14:17:09;58.33;;;20.47;;
20283;SDS011;10301;50.832;4.080;2022-12-10T14:19:36;61.00;;;20.60;;
20283;SDS011;10301;50.832;4.080;2022-12-10T14:22:05;72.37;;;22.20;;
20283;SDS011;10301;50.832;4.080;2022-12-10T14:24:37;73.83;;;22.47;;
20283;SDS011;10301;50.832;4.080;2022-12-10T14:29:47;68.37;;;21.70;;
20283;SDS011;10301;50.832;4.080;2022-12-10T14:32:15;72.80;;;24.57;;
20283;SDS011;10301;50.832;4.080;2022-12-10T14:34:55;63.50;;;21.90;;
20283;SDS011;10301;50.832;4.080;2022-12-10T14:37:23;63.27;;;22.37;;
20283;SDS011;10301;50.832;4.080;2022-12-10T14:39:51;65.67;;;21.80;;
20283;SDS011;10301;50.832;4.080;2022-12-10T14:42:17;63.63;;;20.80;;
20283;SDS011;10301;50.832;4.080;2022-12-10T14:44:44;73.97;;;21.87;;
20283;SDS011;10301;50.832;4.080;2022-12-10T14:47:15;70.17;;;23.20;;
20283;SDS011;10301;50.832;4.080;2022-12-10T14:49:47;69.43;;;22.97;;
20283;SDS011;10301;50.832;4.080;2022-12-10T14:52:15;68.47;;;23.67;;
20283;SDS011;10301;50.832;4.080;2022-12-10T14:54:51;63.13;;;23.43;;
20283;SDS011;10301;50.832;4.080;2022-12-10T14:57:22;67.43;;;24.07;;
20283;SDS011;10301;50.832;4.080;2022-12-10T15:02:44;57.90;;;21.77;;
20283;SDS011;10301;50.832;4.080;2022-12-10T15:05:34;58.50;;;21.43;;
20283;SDS011;10301;50.832;4.080;2022-12-10T15:08:02;59.77;;;21.97;;
20283;SDS011;10301;50.832;4.080;2022-12-10T15:10:34;59.97;;;22.53;;
20283;SDS011;10301;50.832;4.080;2022-12-10T15:13:02;65.87;;;24.63;;
20283;SDS011;10301;50.832;4.080;2022-12-10T15:15:31;76.27;;;23.50;;
20283;SDS011;10301;50.832;4.080;2022-12-10T15:18:03;66.73;;;23.13;;
20283;SDS011;10301;50.832;4.080;2022-12-10T15:20:37;62.20;;;23.37;;
20283;SDS011;10301;50.832;4.080;2022-12-10T15:26:10;59.60;;;22.47;;
20283;SDS011;10301;50.832;4.080;2022-12-10T15:28:42;59.07;;;22.30;;
20283;SDS011;10301;50.832;4.080;2022-12-10T15:33:55;58.83;;;20.77;;
20283;SDS011;10301;50.832;4.080;2022-12-10T15:36:26;48.73;;;19.40;;
20283;SDS011;10301;50.832;4.080;2022-12-10T15:39:03;56.77;;;21.63;;
20283;SDS011;10301;50.832;4.080;2022-12-10T15:41:48;55.43;;;21.27;;
20283;SDS011;10301;50.832;4.080;2022-12-10T15:46:51;62.30;;;24.10;;
20283;SDS011;10301;50.832;4.080;2022-12-10T15:49:28;55.20;;;20.40;;
20283;SDS011;10301;50.832;4.080;2022-12-10T15:51:55;61.70;;;22.87;;
20283;SDS011;10301;50.832;4.080;2022-12-10T15:54:35;57.53;;;23.43;;
20283;SDS011;10301;50.832;4.080;2022-12-10T15:59:54;86.47;;;35.60;;
20283;SDS011;10301;50.832;4.080;2022-12-10T16:04:50;67.50;;;24.90;;
20283;SDS011;10301;50.832;4.080;2022-12-10T16:07:16;53.03;;;21.47;;
20283;SDS011;10301;50.832;4.080;2022-12-10T16:09:42;52.07;;;21.87;;
20283;SDS011;10301;50.832;4.080;2022-12-10T16:12:09;60.50;;;22.83;;
20283;SDS011;10301;50.832;4.080;2022-12-10T16:14:37;58.07;;;22.70;;
20283;SDS011;10301;50.832;4.080;2022-12-10T16:17:03;54.83;;;21.70;;
20283;SDS011;10301;50.832;4.080;2022-12-10T16:19:28;61.70;;;22.30;;
20283;SDS011;10301;50.832;4.080;2022-12-10T16:21:54;49.67;;;21.73;;
20283;SDS011;10301;50.832;4.080;2022-12-10T16:24:20;54.17;;;21.67;;
20283;SDS011;10301;50.832;4.080;2022-12-10T16:26:45;53.43;;;20.70;;
20283;SDS011;10301;50.832;4.080;2022-12-10T16:29:11;49.07;;;21.80;;
20283;SDS011;10301;50.832;4.080;2022-12-10T16:31:37;50.00;;;20.87;;